Blue Level, Kentucky
Current Conditions -  °F | °C
As of 7:07 PM on Tuesday 27 Jan 2015 (Local Time) from KBWG Reporting Station
Overcast Overcast  
Wind Chill: 34°   Ceiling: 3000
Heat Index: 34°   Visibility: 8mi
Dew Point: 30°   Wind: 0mph
Humidity: 85%   Direction: NA
Pressure: 30.22"   Gusts: NA
Location:  36.9519°N, 86.6076°W
Report Text: KBWG 280107Z AUTO 00000KT 8SM FEW008 SCT017 OVC030 01/M01 A3022 RMK AO2 SNE0056 P0000 T00111011
Loading
Personal Weather Stations






























Interactive Weather Map New forecast layout! Learn more

10-Day Weather Forecast

Advertisements
Track Severe Weather on mobile